Mitsukawa Maru — JD2495 — position and weather

sailwx.info

Track history (hours):
 
Tides and Currents Weather Stations Pressure Air Temp Water Temp Dewpoint Dewpoint Depression Visibility Wind Speed Wind Dir Waves Ship Positions

Mitsukawa Maru

Last reported at 2015-Apr-24 20:07 UTC. Time now 2015-May-04 12:03 UTC.
Position N 34°60' E 139°29'.
Warning: this ship's position is 9 days out of date.

Length 105 m; draft 4.2 m.

Type: Cargo ship. MMSI: 431000326.

Date/timePositionNaut miles runAvg speedWind from/ knotsBaromVisibWave heightAir tempDewpointWater temp
2015-Apr-24 20:07N 34°60' E 139°29'813.8
2015-Apr-24 19:33N 35°04' E 139°37'1313.2
2015-Apr-24 18:33N 35°15' E 139°46'1111.5
2015-Apr-24 17:33N 35°26' E 139°46'1313.3
2015-Apr-24 16:33N 35°34' E 139°59'6 5.1
2015-Apr-24 15:26N 35°35' E 140°06'0 0.0
2015-Apr-24 14:26N 35°35' E 140°06'0 0.0
2015-Apr-24 13:32N 35°35' E 140°06'0 0.0
2015-Apr-24 12:32N 35°35' E 140°06'0 0.0
2015-Apr-24 11:26N 35°35' E 140°06'0 0.0
2015-Apr-24 10:32N 35°35' E 140°06'0 0.0
2015-Apr-24 09:33N 35°35' E 140°06'8 7.9
2015-Apr-24 08:33N 35°32' E 139°57'1312.8
2015-Apr-24 07:33N 35°23' E 139°46'1111.5
2015-Apr-24 06:33N 35°12' E 139°47'1212.1
2015-Apr-24 05:33N 35°01' E 139°39'243 5.1
2015-Apr-22 06:18N 33°60' E 134°54'1114.2
2015-Apr-22 05:33N 34°10' E 134°57'1414.5
2015-Apr-22 04:33N 34°24' E 135°00'1212.4
2015-Apr-22 03:33N 34°37' E 135°01'1412.4
2015-Apr-22 02:23N 34°32' E 134°45'  
Track history (hours):
 
Tides and Currents Weather Stations Pressure Air Temp Water Temp Dewpoint Dewpoint Depression Visibility Wind Speed Wind Dir Waves Ship Positions

Mitsukawa Maru

Last reported at 2015-Apr-24 20:07 UTC. Time now 2015-May-04 12:03 UTC.
Position N 34°60' E 139°29'.
Warning: this ship's position is 9 days out of date.

Length 105 m; draft 4.2 m.

Type: Cargo ship. MMSI: 431000326.

Date/timePositionNaut miles runAvg speedWind from/ knotsBaromVisibWave heightAir tempDewpointWater temp
2015-Apr-24 20:07N 34°60' E 139°29'813.8
2015-Apr-24 19:33N 35°04' E 139°37'1313.2
2015-Apr-24 18:33N 35°15' E 139°46'1111.5
2015-Apr-24 17:33N 35°26' E 139°46'1313.3
2015-Apr-24 16:33N 35°34' E 139°59'6 5.1
2015-Apr-24 15:26N 35°35' E 140°06'0 0.0
2015-Apr-24 14:26N 35°35' E 140°06'0 0.0
2015-Apr-24 13:32N 35°35' E 140°06'0 0.0
2015-Apr-24 12:32N 35°35' E 140°06'0 0.0
2015-Apr-24 11:26N 35°35' E 140°06'0 0.0
2015-Apr-24 10:32N 35°35' E 140°06'0 0.0
2015-Apr-24 09:33N 35°35' E 140°06'8 7.9
2015-Apr-24 08:33N 35°32' E 139°57'1312.8
2015-Apr-24 07:33N 35°23' E 139°46'1111.5
2015-Apr-24 06:33N 35°12' E 139°47'1212.1
2015-Apr-24 05:33N 35°01' E 139°39'243 5.1
2015-Apr-22 06:18N 33°60' E 134°54'1114.2
2015-Apr-22 05:33N 34°10' E 134°57'1414.5
2015-Apr-22 04:33N 34°24' E 135°00'1212.4
2015-Apr-22 03:33N 34°37' E 135°01'1412.4
2015-Apr-22 02:23N 34°32' E 134°45'  

Dump ship's entire track history